Time;durP1;ratioP1;P1;durP2;ratioP2;P2;SDS_P1;SDS_P2;PMS_P1;PMS_P2;Temp;Humidity;BMP_temperature;BMP_pressure;BME280_temperature;BME280_humidity;BME280_pressure;Samples;Min_cycle;Max_cycle;Signal;HPM_P1;HPM_P2
2024/01/11 00:01:04;;;;;;;17.50;5.78;;;1.10;99.90;;;;;;5001973;28;20775;-65
2024/01/11 00:03:31;;;;;;;18.83;5.57;;;1.30;99.90;;;;;;4995014;28;20141;-65
2024/01/11 00:05:57;;;;;;;13.43;4.63;;;1.00;99.90;;;;;;4994816;28;20050;-65
2024/01/11 00:08:24;;;;;;;14.27;4.55;;;1.10;99.90;;;;;;4995619;28;20046;-66
2024/01/11 00:10:51;;;;;;;12.55;4.70;;;1.10;99.90;;;;;;4996460;28;20038;-65
2024/01/11 00:13:18;;;;;;;14.68;4.90;;;0.90;99.90;;;;;;4994275;28;20045;-65
2024/01/11 00:15:45;;;;;;;16.58;5.13;;;0.90;99.90;;;;;;4995106;28;20066;-65
2024/01/11 00:18:12;;;;;;;13.55;3.78;;;1.10;99.90;;;;;;4991359;28;20683;-65
2024/01/11 00:20:39;;;;;;;19.75;4.68;;;0.80;99.90;;;;;;5000283;28;20300;-65
2024/01/11 00:23:06;;;;;;;15.20;5.05;;;0.80;99.90;;;;;;4991007;28;20049;-65
2024/01/11 00:25:32;;;;;;;16.98;4.20;;;0.80;99.90;;;;;;4994225;28;20046;-65
2024/01/11 00:27:59;;;;;;;18.67;4.68;;;0.80;99.90;;;;;;4996383;28;20132;-65
2024/01/11 00:30:26;;;;;;;12.57;5.65;;;0.70;99.90;;;;;;4998555;28;20054;-65
2024/01/11 00:32:53;;;;;;;12.00;3.78;;;0.80;99.90;;;;;;5006458;28;20451;-64
2024/01/11 00:35:20;;;;;;;10.38;3.83;;;0.70;99.90;;;;;;5007660;28;20085;-65
2024/01/11 00:37:47;;;;;;;15.48;5.40;;;0.70;99.90;;;;;;5005647;28;20408;-65
2024/01/11 00:40:13;;;;;;;16.92;4.88;;;0.80;99.90;;;;;;5009014;28;20092;-66
2024/01/11 00:42:40;;;;;;;9.57;3.75;;;0.60;99.90;;;;;;5008654;28;20069;-65
2024/01/11 00:45:07;;;;;;;16.63;3.75;;;0.70;99.90;;;;;;4995406;28;20444;-65
2024/01/11 00:47:34;;;;;;;14.93;5.38;;;0.60;99.90;;;;;;5003760;28;20120;-65
2024/01/11 00:50:01;;;;;;;12.65;4.47;;;0.60;99.90;;;;;;5008954;28;20153;-65
2024/01/11 00:52:28;;;;;;;17.05;4.20;;;0.60;99.90;;;;;;5011365;28;20046;-66
2024/01/11 00:54:55;;;;;;;13.57;4.63;;;0.60;99.90;;;;;;5011126;28;20049;-65
2024/01/11 00:57:22;;;;;;;14.30;4.68;;;0.60;99.90;;;;;;5008812;28;20068;-65
2024/01/11 00:59:49;;;;;;;11.52;4.43;;;0.60;99.90;;;;;;5011900;28;20433;-65
2024/01/11 01:02:15;;;;;;;14.35;4.65;;;0.50;99.90;;;;;;5009732;28;20139;-65
2024/01/11 01:04:42;;;;;;;9.88;4.15;;;0.50;99.90;;;;;;5008129;28;20038;-66
2024/01/11 01:07:09;;;;;;;16.83;5.28;;;0.60;99.90;;;;;;5006881;28;20464;-65
2024/01/11 01:09:36;;;;;;;10.52;4.53;;;0.50;99.90;;;;;;5008517;28;20046;-65
2024/01/11 01:12:03;;;;;;;21.30;6.50;;;0.50;99.90;;;;;;5003780;28;20157;-65
2024/01/11 01:14:30;;;;;;;12.25;3.97;;;0.50;99.90;;;;;;5008509;28;20096;-65
2024/01/11 01:16:57;;;;;;;8.32;5.20;;;0.50;99.90;;;;;;5005595;28;20076;-64
2024/01/11 01:19:24;;;;;;;11.50;4.50;;;0.40;99.90;;;;;;5007343;28;20065;-65
2024/01/11 01:21:51;;;;;;;15.68;5.30;;;0.40;99.90;;;;;;5007552;28;20045;-65
2024/01/11 01:24:17;;;;;;;15.82;6.05;;;0.50;99.90;;;;;;5008762;28;20049;-65
2024/01/11 01:26:44;;;;;;;11.55;5.45;;;0.50;99.90;;;;;;4981917;28;20046;-65
2024/01/11 01:29:11;;;;;;;13.45;4.68;;;0.50;99.90;;;;;;5007935;28;20393;-62
2024/01/11 01:31:38;;;;;;;16.48;5.95;;;0.50;99.90;;;;;;5007108;28;20566;-65
2024/01/11 01:34:07;;;;;;;14.27;5.70;;;0.50;99.90;;;;;;5006434;28;20049;-65
2024/01/11 01:36:34;;;;;;;16.25;5.13;;;0.50;99.90;;;;;;4996630;28;20049;-63
2024/01/11 01:39:00;;;;;;;19.88;5.25;;;0.40;99.90;;;;;;5006274;28;20061;-64
2024/01/11 01:41:27;;;;;;;15.88;6.03;;;0.40;99.90;;;;;;5007360;28;20075;-64
2024/01/11 01:43:54;;;;;;;17.00;4.85;;;0.40;99.90;;;;;;5006636;28;20103;-64
2024/01/11 01:46:24;;;;;;;13.30;4.53;;;0.40;99.90;;;;;;5005994;28;20772;-64
2024/01/11 01:48:52;;;;;;;15.32;4.55;;;0.50;99.90;;;;;;5003468;28;20263;-65
2024/01/11 01:51:19;;;;;;;13.20;4.57;;;0.40;99.90;;;;;;4973383;28;20485;-65
2024/01/11 01:53:45;;;;;;;16.20;4.40;;;0.30;99.90;;;;;;5005404;28;20132;-64
2024/01/11 01:56:12;;;;;;;18.02;4.82;;;0.30;99.90;;;;;;5006143;28;20052;-65
2024/01/11 01:58:41;;;;;;;19.88;4.45;;;0.30;99.90;;;;;;4990873;28;20444;-65
2024/01/11 02:01:07;;;;;;;15.32;4.85;;;0.20;99.90;;;;;;5005835;28;20144;-65
2024/01/11 02:03:37;;;;;;;13.13;4.78;;;0.10;99.90;;;;;;5005266;28;20141;-65
2024/01/11 02:06:04;;;;;;;9.93;4.05;;;0.10;99.90;;;;;;4992590;28;20055;-65
2024/01/11 02:08:31;;;;;;;11.52;4.70;;;0.10;99.90;;;;;;5009522;28;20108;-65
2024/01/11 02:10:59;;;;;;;20.88;5.95;;;0.00;99.90;;;;;;4998546;28;20050;-65
2024/01/11 02:13:26;;;;;;;17.42;5.03;;;0.00;99.90;;;;;;5004507;28;20045;-65
2024/01/11 02:15:53;;;;;;;19.50;5.75;;;0.20;99.90;;;;;;4987297;28;20042;-66
2024/01/11 02:18:20;;;;;;;11.85;5.00;;;-0.10;99.90;;;;;;4997748;28;20053;-64
2024/01/11 02:20:47;;;;;;;18.50;5.43;;;-0.50;99.90;;;;;;5001403;28;20133;-64
2024/01/11 02:23:18;;;;;;;11.13;4.38;;;-0.20;99.90;;;;;;4972320;28;20046;-66
2024/01/11 02:25:45;;;;;;;17.13;5.68;;;-0.20;99.90;;;;;;4980653;28;20347;-66
2024/01/11 02:28:12;;;;;;;14.45;5.65;;;-0.20;99.90;;;;;;5003392;28;20230;-65
2024/01/11 02:30:39;;;;;;;16.40;5.55;;;-0.10;99.90;;;;;;4997089;28;20050;-65
2024/01/11 02:33:06;;;;;;;15.30;5.03;;;-0.10;99.90;;;;;;5000620;28;20050;-65
2024/01/11 02:35:33;;;;;;;22.20;5.35;;;-0.10;99.90;;;;;;4975728;28;20054;-64
2024/01/11 02:38:00;;;;;;;15.70;5.30;;;-0.10;99.90;;;;;;4986546;28;20042;-64
2024/01/11 02:40:26;;;;;;;15.30;5.85;;;-0.10;99.90;;;;;;4978349;28;20061;-64
2024/01/11 02:42:53;;;;;;;12.52;5.32;;;-0.10;99.90;;;;;;5003615;28;20089;-64
2024/01/11 02:45:20;;;;;;;12.75;3.63;;;-0.20;99.90;;;;;;5003635;28;20137;-63
2024/01/11 02:47:47;;;;;;;16.63;5.00;;;-0.20;99.90;;;;;;5008027;28;20054;-64
2024/01/11 02:50:14;;;;;;;20.70;5.43;;;-0.20;99.90;;;;;;5000496;28;20049;-64
2024/01/11 02:52:41;;;;;;;14.23;5.20;;;-0.20;99.90;;;;;;4999885;28;20560;-64
2024/01/11 02:55:09;;;;;;;25.25;6.45;;;-0.20;99.90;;;;;;5001768;28;20644;-64
2024/01/11 02:57:36;;;;;;;20.88;5.20;;;-0.20;99.90;;;;;;4995764;28;20066;-65
2024/01/11 03:00:03;;;;;;;13.82;5.13;;;-0.20;99.90;;;;;;5000396;28;20628;-65
2024/01/11 03:02:30;;;;;;;11.70;5.25;;;-0.20;99.90;;;;;;5007629;28;20751;-65
2024/01/11 03:04:56;;;;;;;12.23;5.05;;;-0.20;99.90;;;;;;4999430;28;20448;-64
2024/01/11 03:07:23;;;;;;;15.25;5.97;;;-0.10;99.90;;;;;;4998550;28;20124;-65
2024/01/11 03:09:50;;;;;;;18.98;6.18;;;-0.20;99.90;;;;;;5001403;28;20054;-65
2024/01/11 03:12:17;;;;;;;9.05;4.68;;;-0.10;99.90;;;;;;5000128;28;20050;-65
2024/01/11 03:14:44;;;;;;;19.40;5.78;;;-0.10;99.90;;;;;;4987885;28;20077;-64
2024/01/11 03:17:11;;;;;;;10.80;4.68;;;-0.10;99.90;;;;;;5004875;28;20540;-65
2024/01/11 03:19:41;;;;;;;15.20;5.45;;;-0.10;99.90;;;;;;4986711;28;20536;-64
2024/01/11 03:22:08;;;;;;;21.98;8.13;;;0.00;99.90;;;;;;5014184;28;20493;-64
2024/01/11 03:24:39;;;;;;;16.38;6.47;;;-0.10;99.90;;;;;;4971951;28;20050;-64
2024/01/11 03:27:05;;;;;;;13.95;5.93;;;-0.10;99.90;;;;;;4996225;28;20061;-64
2024/01/11 03:29:33;;;;;;;16.60;6.53;;;-0.10;99.90;;;;;;5003051;28;20058;-64
2024/01/11 03:32:00;;;;;;;10.73;4.85;;;-0.10;99.90;;;;;;5004754;28;20057;-65
2024/01/11 03:34:27;;;;;;;19.13;6.18;;;-0.10;99.90;;;;;;4988023;28;20517;-65
2024/01/11 03:36:54;;;;;;;15.30;6.03;;;-0.10;99.90;;;;;;5004593;28;20042;-63
2024/01/11 03:39:21;;;;;;;10.30;5.75;;;-0.10;99.90;;;;;;5007803;28;20108;-63
2024/01/11 03:41:48;;;;;;;20.45;6.35;;;-0.10;99.90;;;;;;5003017;28;20152;-64
2024/01/11 03:44:15;;;;;;;15.10;6.10;;;-0.10;99.90;;;;;;5005675;28;20046;-64
2024/01/11 03:46:42;;;;;;;24.48;6.53;;;-0.10;99.90;;;;;;5003488;28;20053;-63
2024/01/11 03:49:09;;;;;;;23.60;7.22;;;-0.10;99.90;;;;;;5005614;28;20054;-64
2024/01/11 03:51:36;;;;;;;19.35;5.95;;;-0.10;99.90;;;;;;4998982;28;20045;-64
2024/01/11 03:54:03;;;;;;;16.75;7.32;;;-0.20;99.90;;;;;;4996991;28;20050;-64
2024/01/11 03:56:30;;;;;;;11.68;5.90;;;-0.20;99.90;;;;;;5000772;28;20146;-65
2024/01/11 03:58:57;;;;;;;10.30;6.20;;;-0.30;99.90;;;;;;4987340;28;20064;-63
2024/01/11 04:01:23;;;;;;;14.77;7.05;;;-0.30;99.90;;;;;;5007614;28;20073;-63
2024/01/11 04:03:51;;;;;;;23.65;7.45;;;-0.30;99.90;;;;;;5004596;28;20058;-63
2024/01/11 04:06:21;;;;;;;14.88;5.65;;;-0.30;99.90;;;;;;4998288;28;20501;-63
2024/01/11 04:08:49;;;;;;;13.98;5.95;;;-0.30;99.90;;;;;;5005576;28;20046;-64
2024/01/11 04:11:16;;;;;;;15.82;5.72;;;-0.40;99.90;;;;;;5008017;28;20042;-64
2024/01/11 04:13:43;;;;;;;12.18;6.32;;;-0.40;99.90;;;;;;4990212;28;20114;-64
2024/01/11 04:16:10;;;;;;;15.10;6.45;;;-0.50;99.90;;;;;;5005443;28;20131;-67
2024/01/11 04:18:37;;;;;;;15.48;6.25;;;-0.50;99.90;;;;;;5007022;28;20045;-64
2024/01/11 04:21:04;;;;;;;12.75;6.68;;;-0.50;99.90;;;;;;5004541;28;20477;-64
2024/01/11 04:23:31;;;;;;;16.73;6.00;;;-0.50;99.90;;;;;;5004010;28;20125;-63
2024/01/11 04:25:57;;;;;;;14.43;6.35;;;-0.50;99.90;;;;;;5001363;28;20478;-65
2024/01/11 04:28:24;;;;;;;13.30;5.53;;;-0.60;99.90;;;;;;5007837;28;20135;-65
2024/01/11 04:30:51;;;;;;;18.33;6.85;;;-0.50;99.90;;;;;;4993942;28;20528;-65
2024/01/11 04:33:18;;;;;;;21.65;6.78;;;-0.60;99.90;;;;;;4998597;28;20548;-63
2024/01/11 04:35:45;;;;;;;16.95;6.55;;;-0.60;99.90;;;;;;5007723;28;20153;-65
2024/01/11 04:38:12;;;;;;;28.02;7.70;;;-0.60;99.90;;;;;;4986992;28;20358;-63
2024/01/11 04:40:39;;;;;;;12.63;6.70;;;-0.60;99.90;;;;;;5004693;28;20048;-64
2024/01/11 04:43:07;;;;;;;13.18;6.60;;;-0.70;99.90;;;;;;5007242;28;20058;-64
2024/01/11 04:45:34;;;;;;;19.60;7.15;;;-0.50;99.90;;;;;;5005748;28;20049;-64
2024/01/11 04:48:01;;;;;;;15.13;7.13;;;-0.70;99.90;;;;;;5006887;28;20156;-64
2024/01/11 04:50:28;;;;;;;23.17;7.57;;;-0.70;99.90;;;;;;5003104;28;20077;-65
2024/01/11 04:52:55;;;;;;;14.23;7.80;;;-0.80;99.90;;;;;;5007273;28;20072;-65
2024/01/11 04:55:21;;;;;;;18.33;7.10;;;-0.80;99.90;;;;;;5006089;28;20133;-64
2024/01/11 04:57:48;;;;;;;13.23;6.57;;;-0.80;99.90;;;;;;5007505;28;20096;-63
2024/01/11 05:00:15;;;;;;;17.10;6.78;;;-0.80;99.90;;;;;;5004468;28;20489;-65
2024/01/11 05:02:42;;;;;;;12.85;6.57;;;-0.80;99.90;;;;;;5007459;28;20567;-64
2024/01/11 05:05:09;;;;;;;16.25;6.35;;;-0.80;99.90;;;;;;5004342;28;20042;-64
2024/01/11 05:07:36;;;;;;;18.08;7.47;;;-0.90;99.90;;;;;;5006857;28;20046;-65
2024/01/11 05:10:07;;;;;;;18.88;6.15;;;-0.80;99.90;;;;;;5005788;28;20054;-64
2024/01/11 05:12:36;;;;;;;18.08;7.97;;;-0.90;99.90;;;;;;4985185;28;20307;-65
2024/01/11 05:15:04;;;;;;;18.92;7.20;;;-0.80;99.90;;;;;;5004118;28;20437;-64
2024/01/11 05:17:31;;;;;;;18.27;6.80;;;-0.90;99.90;;;;;;5005695;28;20096;-64
2024/01/11 05:19:58;;;;;;;23.35;7.72;;;-0.90;99.90;;;;;;5004013;28;20100;-64
2024/01/11 05:22:25;;;;;;;28.17;9.20;;;-1.00;99.90;;;;;;5007696;28;20133;-64
2024/01/11 05:24:51;;;;;;;13.02;7.13;;;-1.00;99.90;;;;;;4971178;28;20256;-64
2024/01/11 05:27:18;;;;;;;19.67;7.03;;;-1.00;99.90;;;;;;4997700;28;20057;-64
2024/01/11 05:29:45;;;;;;;13.63;6.82;;;-1.00;99.90;;;;;;5000366;28;20736;-64
2024/01/11 05:32:12;;;;;;;16.15;7.60;;;-1.10;99.90;;;;;;5007272;28;20042;-65
2024/01/11 05:34:39;;;;;;;14.60;7.18;;;-0.90;99.90;;;;;;5003100;28;20049;-65
2024/01/11 05:37:06;;;;;;;20.92;8.60;;;-1.10;99.90;;;;;;5005107;28;20046;-64
2024/01/11 05:39:33;;;;;;;14.55;7.00;;;-1.10;99.90;;;;;;5004094;28;20041;-63
2024/01/11 05:42:00;;;;;;;16.45;7.25;;;-0.90;99.90;;;;;;4989687;28;20046;-63
2024/01/11 05:44:27;;;;;;;20.42;7.30;;;-1.10;99.90;;;;;;5005620;28;20697;-65
2024/01/11 05:46:54;;;;;;;19.67;7.45;;;-1.10;99.90;;;;;;5001592;28;20053;-65
2024/01/11 05:49:21;;;;;;;20.33;7.20;;;-1.20;99.90;;;;;;5010500;28;20056;-64
2024/01/11 05:51:48;;;;;;;28.15;6.60;;;-1.10;99.90;;;;;;5008810;28;20053;-64
2024/01/11 05:54:15;;;;;;;17.85;7.25;;;-1.20;99.90;;;;;;5010476;28;20061;-65
2024/01/11 05:56:42;;;;;;;15.07;5.93;;;-1.20;99.90;;;;;;5010749;28;20040;-64
2024/01/11 05:59:09;;;;;;;16.20;6.85;;;-1.20;99.90;;;;;;5007677;28;20324;-64
2024/01/11 06:01:43;;;;;;;13.95;7.07;;;-1.10;99.90;;;;;;5010818;28;20129;-63
2024/01/11 06:04:10;;;;;;;18.98;7.70;;;-1.20;99.90;;;;;;4986451;28;20084;-62
2024/01/11 06:06:37;;;;;;;17.25;6.68;;;-1.20;99.90;;;;;;5005623;28;20724;-63
2024/01/11 06:09:07;;;;;;;16.73;7.07;;;-1.20;99.90;;;;;;4990999;28;20053;-63
2024/01/11 06:11:34;;;;;;;15.60;6.78;;;-1.20;99.90;;;;;;5002999;28;20049;-63
2024/01/11 06:14:01;;;;;;;15.27;6.20;;;-1.30;99.90;;;;;;5003231;28;20096;-63
2024/01/11 06:16:28;;;;;;;14.35;7.88;;;-1.20;99.90;;;;;;5004124;28;20108;-63
2024/01/11 06:18:55;;;;;;;17.35;7.03;;;-1.30;99.90;;;;;;4977704;28;20046;-63
2024/01/11 06:21:22;;;;;;;14.82;7.25;;;-1.30;99.90;;;;;;5005580;28;20597;-63
2024/01/11 06:23:49;;;;;;;19.80;6.90;;;-1.40;99.90;;;;;;5000197;28;20053;-64
2024/01/11 06:26:16;;;;;;;17.65;7.05;;;-1.40;99.90;;;;;;4985574;28;20049;-63
2024/01/11 06:28:43;;;;;;;16.67;6.90;;;-1.40;99.90;;;;;;4999571;28;20049;-63
2024/01/11 06:31:10;;;;;;;26.05;9.00;;;-1.40;99.90;;;;;;4999587;28;20076;-63
2024/01/11 06:33:37;;;;;;;20.70;8.40;;;-1.40;99.90;;;;;;5003760;28;20389;-63
2024/01/11 06:36:07;;;;;;;20.50;8.32;;;-1.40;99.90;;;;;;5004780;28;20568;-63
2024/01/11 06:38:34;;;;;;;21.83;7.80;;;-1.30;99.90;;;;;;5000058;28;20056;-64
2024/01/11 06:41:01;;;;;;;18.30;7.88;;;-1.30;99.90;;;;;;4992966;28;20094;-63
2024/01/11 06:43:28;;;;;;;16.60;7.13;;;-1.30;99.90;;;;;;5003937;28;20501;-64
2024/01/11 06:45:55;;;;;;;15.63;6.57;;;-1.20;99.90;;;;;;5003617;28;20050;-63
2024/01/11 06:48:22;;;;;;;23.92;8.88;;;-1.20;99.90;;;;;;5004662;28;20480;-63
2024/01/11 06:50:49;;;;;;;19.33;6.85;;;-1.20;99.90;;;;;;5000634;28;20481;-63
2024/01/11 06:53:15;;;;;;;21.27;8.30;;;-1.20;99.90;;;;;;5001669;28;20038;-63
2024/01/11 06:55:43;;;;;;;18.60;7.97;;;-1.20;99.90;;;;;;5004508;28;20050;-63
2024/01/11 06:58:10;;;;;;;19.83;7.38;;;-1.00;99.90;;;;;;5002439;28;20159;-63
2024/01/11 07:00:42;;;;;;;19.20;7.78;;;-1.10;99.90;;;;;;4978387;28;20054;-65
2024/01/11 07:03:11;;;;;;;17.35;9.18;;;-1.10;99.90;;;;;;4999375;28;20046;-69
2024/01/11 07:05:38;;;;;;;19.85;7.90;;;-1.00;99.90;;;;;;4980061;28;20152;-63
2024/01/11 07:08:05;;;;;;;23.73;7.93;;;-1.00;99.90;;;;;;5000372;28;20054;-65
2024/01/11 07:10:32;;;;;;;16.55;8.25;;;-1.00;99.90;;;;;;5003619;28;20633;-65
2024/01/11 07:12:59;;;;;;;22.25;8.82;;;-0.90;99.90;;;;;;5001087;28;20053;-65
2024/01/11 07:15:26;;;;;;;18.45;8.73;;;-0.90;99.90;;;;;;5003210;28;20103;-65
2024/01/11 07:17:55;;;;;;;20.58;9.02;;;-0.90;99.90;;;;;;5006627;28;20429;-65
2024/01/11 07:20:22;;;;;;;17.42;7.50;;;-0.90;99.90;;;;;;5000923;28;20493;-65
2024/01/11 07:22:49;;;;;;;20.27;9.18;;;-0.90;99.90;;;;;;4980749;28;20494;-65
2024/01/11 07:25:16;;;;;;;23.50;11.25;;;-0.90;99.90;;;;;;4998715;28;20218;-65
2024/01/11 07:27:43;;;;;;;19.75;8.30;;;-0.90;99.90;;;;;;4997607;28;20049;-66
2024/01/11 07:30:11;;;;;;;19.15;8.30;;;-0.90;99.90;;;;;;5003020;28;20084;-62
2024/01/11 07:32:38;;;;;;;17.38;9.10;;;-0.90;99.90;;;;;;5000261;28;20092;-63
2024/01/11 07:35:06;;;;;;;18.40;8.95;;;-0.90;99.90;;;;;;5004097;28;20054;-62
2024/01/11 07:37:40;;;;;;;23.85;8.77;;;-0.90;99.90;;;;;;4972221;28;20066;-62
2024/01/11 07:40:10;;;;;;;16.27;8.45;;;-0.80;99.90;;;;;;5001947;28;20053;-62
2024/01/11 07:42:40;;;;;;;16.83;7.70;;;-0.70;99.90;;;;;;5002390;28;20536;-62
2024/01/11 07:45:09;;;;;;;18.80;7.28;;;-0.60;99.90;;;;;;4990995;28;20846;-61
2024/01/11 07:47:39;;;;;;;20.00;7.82;;;-0.60;99.90;;;;;;5002873;28;20156;-63
2024/01/11 07:50:06;;;;;;;20.88;7.93;;;-0.60;99.90;;;;;;5003421;28;20054;-62
2024/01/11 07:52:36;;;;;;;24.05;8.55;;;-0.50;99.90;;;;;;4999760;28;20049;-63
2024/01/11 07:55:07;;;;;;;23.35;7.82;;;-0.40;99.90;;;;;;5007486;28;20485;-62
2024/01/11 07:57:34;;;;;;;18.67;6.97;;;-0.40;99.90;;;;;;4990973;28;20152;-62
2024/01/11 08:00:03;;;;;;;23.60;8.23;;;-0.40;99.90;;;;;;4988298;28;20068;-63
2024/01/11 08:02:30;;;;;;;19.90;7.80;;;-0.30;99.90;;;;;;4999408;28;20081;-62
2024/01/11 08:04:59;;;;;;;22.70;6.05;;;-0.30;99.90;;;;;;5006524;28;20505;-62
2024/01/11 08:07:30;;;;;;;22.83;7.00;;;-0.30;99.90;;;;;;5004005;28;20125;-63
2024/01/11 08:09:57;;;;;;;14.52;5.07;;;-0.30;99.90;;;;;;5006318;28;20673;-63
2024/01/11 08:12:23;;;;;;;18.85;5.93;;;-0.20;99.90;;;;;;4997822;28;20092;-62
2024/01/11 08:14:50;;;;;;;13.68;4.93;;;-0.20;99.90;;;;;;5007007;28;20473;-63
2024/01/11 08:17:17;;;;;;;11.07;5.35;;;0.10;99.90;;;;;;5009196;28;20561;-62
2024/01/11 08:19:44;;;;;;;11.82;4.30;;;0.00;99.90;;;;;;5007147;28;20042;-62
2024/01/11 08:22:11;;;;;;;10.52;5.45;;;-0.10;99.90;;;;;;5004561;28;20050;-62
2024/01/11 08:24:38;;;;;;;21.83;4.50;;;0.00;99.90;;;;;;5008570;28;20108;-62
2024/01/11 08:27:05;;;;;;;11.02;3.88;;;0.00;99.90;;;;;;5005698;28;20127;-61
2024/01/11 08:29:33;;;;;;;16.38;4.72;;;0.10;99.90;;;;;;5001376;28;20085;-61
2024/01/11 08:32:04;;;;;;;22.88;4.45;;;0.10;99.90;;;;;;4978847;28;20072;-62
2024/01/11 08:34:49;;;;;;;17.40;3.45;;;0.10;99.90;;;;;;5004920;28;20626;-62
2024/01/11 08:37:17;;;;;;;12.95;3.55;;;0.30;99.90;;;;;;5006707;28;20108;-62
2024/01/11 08:39:46;;;;;;;13.23;6.32;;;0.20;99.90;;;;;;5006084;28;20167;-62
2024/01/11 08:42:15;;;;;;;9.82;3.08;;;0.20;99.90;;;;;;5006511;28;20136;-62
2024/01/11 08:44:42;;;;;;;9.40;4.20;;;0.20;99.90;;;;;;5006058;28;20044;-63
2024/01/11 08:47:09;;;;;;;13.25;3.67;;;0.30;99.90;;;;;;5005135;28;20089;-62
2024/01/11 08:49:39;;;;;;;7.93;3.33;;;0.30;99.90;;;;;;5005467;28;20124;-61
2024/01/11 08:52:06;;;;;;;8.45;2.97;;;0.30;99.90;;;;;;5005625;28;20049;-61
2024/01/11 08:54:33;;;;;;;15.52;4.38;;;0.30;99.90;;;;;;5006287;28;20181;-62
2024/01/11 08:57:00;;;;;;;11.68;2.72;;;0.40;99.90;;;;;;5006373;28;20050;-63
2024/01/11 08:59:27;;;;;;;9.93;2.83;;;0.40;99.90;;;;;;5002322;28;20046;-63
2024/01/11 09:01:54;;;;;;;6.20;2.25;;;0.40;99.90;;;;;;5005665;28;20049;-62
2024/01/11 09:04:36;;;;;;;9.52;2.70;;;0.50;99.90;;;;;;5003723;28;20489;-63
2024/01/11 09:07:03;;;;;;;10.27;2.75;;;0.50;99.90;;;;;;5003566;28;20053;-62
2024/01/11 09:09:30;;;;;;;7.82;2.47;;;0.50;99.90;;;;;;5003431;28;20046;-62
2024/01/11 09:12:05;;;;;;;15.30;3.22;;;0.60;99.90;;;;;;5004591;28;20057;-63
2024/01/11 09:14:31;;;;;;;15.77;2.88;;;0.60;99.90;;;;;;5007007;28;20054;-62
2024/01/11 09:16:58;;;;;;;9.57;2.53;;;0.60;99.90;;;;;;5009194;28;20054;-62
2024/01/11 09:19:25;;;;;;;10.00;2.70;;;0.70;99.90;;;;;;5008769;28;20046;-62
2024/01/11 09:21:52;;;;;;;9.48;2.92;;;0.70;99.90;;;;;;5003846;28;20577;-65
2024/01/11 09:24:19;;;;;;;10.57;3.28;;;0.80;99.90;;;;;;5009486;28;20053;-63
2024/01/11 09:26:46;;;;;;;11.80;2.92;;;0.80;99.90;;;;;;5001975;28;20046;-65
2024/01/11 09:29:13;;;;;;;5.85;2.55;;;0.80;99.90;;;;;;5004874;28;20517;-62
2024/01/11 09:31:39;;;;;;;10.43;2.83;;;0.90;99.90;;;;;;5008259;28;20577;-63
2024/01/11 09:34:07;;;;;;;10.70;3.35;;;1.00;99.90;;;;;;4990321;28;20049;-64
2024/01/11 09:36:36;;;;;;;12.60;3.20;;;1.10;99.90;;;;;;4981214;28;20425;-63
2024/01/11 09:39:03;;;;;;;12.50;3.33;;;1.10;99.90;;;;;;5005081;28;20085;-63
2024/01/11 09:41:30;;;;;;;10.95;3.13;;;1.10;99.90;;;;;;5003827;28;20054;-64
2024/01/11 09:43:57;;;;;;;11.57;3.55;;;1.20;99.90;;;;;;4988790;28;20050;-63
2024/01/11 09:46:24;;;;;;;11.60;3.95;;;1.20;99.90;;;;;;4974473;28;20057;-65
2024/01/11 09:48:51;;;;;;;9.50;3.25;;;1.30;99.90;;;;;;4987341;28;20096;-63
2024/01/11 09:51:17;;;;;;;10.85;3.85;;;1.40;99.90;;;;;;4986712;28;20061;-62
2024/01/11 09:53:44;;;;;;;10.32;3.35;;;1.40;99.90;;;;;;5000526;28;20099;-64
2024/01/11 09:56:11;;;;;;;14.68;3.85;;;1.50;99.90;;;;;;4980322;28;20085;-64
2024/01/11 09:58:39;;;;;;;15.50;4.72;;;1.50;99.90;;;;;;4989459;28;20053;-63
2024/01/11 10:01:09;;;;;;;6.85;3.33;;;1.60;99.90;;;;;;4963712;28;20529;-64
2024/01/11 10:03:36;;;;;;;13.15;4.10;;;1.60;99.90;;;;;;4962099;28;20050;-63
2024/01/11 10:06:04;;;;;;;10.05;2.45;;;1.70;99.90;;;;;;5001214;28;20049;-63
2024/01/11 10:08:31;;;;;;;14.07;3.53;;;1.80;99.90;;;;;;4964544;28;20050;-63
2024/01/11 10:10:59;;;;;;;19.48;4.13;;;1.80;99.90;;;;;;4981515;28;20050;-62
2024/01/11 10:13:30;;;;;;;16.10;4.70;;;1.90;99.90;;;;;;5004982;28;20050;-62
2024/01/11 10:16:08;;;;;;;13.65;3.55;;;2.00;99.90;;;;;;5002225;28;20053;-63
2024/01/11 10:18:35;;;;;;;10.48;3.35;;;2.10;99.90;;;;;;5001168;28;20042;-62
2024/01/11 10:21:03;;;;;;;13.27;3.65;;;2.20;99.90;;;;;;4999234;28;20380;-63
2024/01/11 10:23:33;;;;;;;10.57;4.30;;;2.20;99.90;;;;;;5003242;28;20061;-62
2024/01/11 10:26:00;;;;;;;12.50;5.05;;;2.20;99.90;;;;;;4987711;28;20057;-62
2024/01/11 10:28:27;;;;;;;8.95;3.47;;;2.30;99.90;;;;;;5005188;28;20064;-64
2024/01/11 10:30:54;;;;;;;12.00;3.85;;;2.30;99.90;;;;;;4986765;28;20101;-62
2024/01/11 10:33:21;;;;;;;7.63;3.35;;;2.30;99.90;;;;;;5009443;28;20046;-62
2024/01/11 10:35:49;;;;;;;16.08;4.18;;;2.40;99.90;;;;;;5004588;28;20057;-63
2024/01/11 10:38:16;;;;;;;11.93;2.92;;;2.50;99.90;;;;;;5006195;28;20133;-62
2024/01/11 10:40:43;;;;;;;14.02;4.13;;;2.50;99.90;;;;;;5005749;28;20485;-62
2024/01/11 10:43:11;;;;;;;16.27;4.28;;;2.50;99.90;;;;;;4989546;28;20042;-62
2024/01/11 10:45:41;;;;;;;9.52;3.40;;;2.60;99.90;;;;;;5008539;28;20695;-63
2024/01/11 10:48:13;;;;;;;12.40;3.30;;;2.60;99.90;;;;;;5007429;28;20640;-62
2024/01/11 10:50:44;;;;;;;7.45;3.20;;;2.70;99.90;;;;;;5004700;28;20038;-63
2024/01/11 10:53:33;;;;;;;11.57;3.70;;;2.70;99.90;;;;;;5003474;28;20177;-62
2024/01/11 10:55:59;;;;;;;14.68;4.25;;;2.80;99.90;;;;;;5007631;28;20054;-62
2024/01/11 10:58:27;;;;;;;7.43;3.63;;;2.80;99.90;;;;;;4987308;28;20046;-62
2024/01/11 11:00:57;;;;;;;15.30;4.90;;;2.90;99.90;;;;;;5004817;28;20046;-65
2024/01/11 11:03:24;;;;;;;11.80;4.38;;;3.00;99.90;;;;;;5007916;28;20065;-62
2024/01/11 11:05:57;;;;;;;8.75;3.83;;;3.10;99.90;;;;;;4983263;28;20128;-63
2024/01/11 11:08:26;;;;;;;12.45;4.07;;;3.40;99.90;;;;;;4994558;28;20497;-62
2024/01/11 11:10:56;;;;;;;13.50;4.53;;;3.40;99.90;;;;;;5002978;28;20513;-63
2024/01/11 11:13:24;;;;;;;17.90;5.50;;;3.50;99.90;;;;;;4994567;28;20052;-63
2024/01/11 11:15:51;;;;;;;11.80;4.57;;;3.80;99.90;;;;;;5004682;28;20401;-63
2024/01/11 11:18:18;;;;;;;11.90;4.63;;;3.70;99.90;;;;;;4987826;28;20054;-62
2024/01/11 11:20:46;;;;;;;12.25;5.10;;;3.80;99.90;;;;;;4987401;28;20073;-63
2024/01/11 11:23:17;;;;;;;11.27;5.40;;;3.80;99.90;;;;;;5003548;28;20054;-63
2024/01/11 11:25:48;;;;;;;13.07;5.85;;;3.80;99.90;;;;;;4985653;28;20069;-63
2024/01/11 11:28:16;;;;;;;11.75;5.53;;;3.90;99.90;;;;;;4999306;28;20489;-63
2024/01/11 11:30:44;;;;;;;12.80;4.45;;;4.00;99.90;;;;;;5003920;28;20050;-63
2024/01/11 11:33:20;;;;;;;8.82;3.53;;;4.00;99.90;;;;;;4998759;28;20058;-65
2024/01/11 11:35:47;;;;;;;13.05;3.75;;;4.00;99.90;;;;;;4985813;28;20046;-64
2024/01/11 11:38:18;;;;;;;6.40;2.97;;;4.10;99.90;;;;;;4985104;28;20608;-62
2024/01/11 11:40:46;;;;;;;9.07;3.38;;;4.10;99.90;;;;;;5005110;28;20129;-63
2024/01/11 11:43:13;;;;;;;13.07;3.38;;;4.10;99.90;;;;;;5005333;28;20054;-63
2024/01/11 11:45:41;;;;;;;7.75;2.85;;;4.10;99.90;;;;;;5000890;28;20500;-63
2024/01/11 11:48:32;;;;;;;11.82;2.78;;;4.10;99.90;;;;;;4984454;28;20049;-62
2024/01/11 11:51:18;;;;;;;16.70;3.20;;;4.10;99.90;;;;;;4992639;28;20092;-63
2024/01/11 11:53:50;;;;;;;10.40;2.63;;;4.20;99.90;;;;;;5000181;28;20046;-62
2024/01/11 11:56:18;;;;;;;5.88;2.85;;;4.20;99.90;;;;;;4997118;28;20162;-62
2024/01/11 11:58:46;;;;;;;6.35;3.15;;;4.20;99.90;;;;;;5007823;28;20562;-63
2024/01/11 12:01:14;;;;;;;9.82;3.05;;;4.20;99.90;;;;;;5005890;28;20046;-62
2024/01/11 12:03:46;;;;;;;11.40;2.78;;;4.20;99.90;;;;;;5005289;28;20042;-63
2024/01/11 12:06:15;;;;;;;6.47;2.92;;;4.20;99.90;;;;;;5009208;28;20065;-63
2024/01/11 12:08:42;;;;;;;9.00;2.35;;;4.40;99.90;;;;;;4997840;28;20054;-63
2024/01/11 12:11:09;;;;;;;4.25;2.40;;;4.30;99.90;;;;;;4983602;28;20097;-63
2024/01/11 12:13:36;;;;;;;13.23;3.03;;;4.30;99.90;;;;;;4984991;28;20060;-63
2024/01/11 12:16:03;;;;;;;4.55;2.45;;;4.30;99.90;;;;;;4971525;28;20042;-62
2024/01/11 12:18:30;;;;;;;4.07;2.90;;;4.30;99.90;;;;;;5000450;28;20054;-62
2024/01/11 12:20:57;;;;;;;6.75;2.63;;;4.30;99.90;;;;;;4986261;28;20489;-62
2024/01/11 12:23:24;;;;;;;3.55;1.65;;;4.30;99.90;;;;;;5004559;28;20046;-62
2024/01/11 12:25:51;;;;;;;5.32;2.00;;;4.30;99.90;;;;;;4967697;28;20046;-62
2024/01/11 12:28:17;;;;;;;7.63;2.35;;;4.30;99.90;;;;;;4980988;28;20509;-62
2024/01/11 12:30:45;;;;;;;6.15;1.85;;;4.30;99.90;;;;;;4971484;28;20049;-62
2024/01/11 12:33:12;;;;;;;8.60;2.67;;;4.20;99.90;;;;;;5005885;28;20049;-63
2024/01/11 12:35:40;;;;;;;4.13;1.52;;;4.30;99.90;;;;;;4990381;28;20050;-66
2024/01/11 12:38:07;;;;;;;5.38;1.65;;;4.30;99.90;;;;;;4997920;28;20042;-62
2024/01/11 12:40:35;;;;;;;8.93;1.67;;;4.30;99.90;;;;;;4991905;28;20132;-63
2024/01/11 12:43:02;;;;;;;6.80;1.88;;;4.30;99.90;;;;;;4991191;28;20049;-63
2024/01/11 12:45:31;;;;;;;6.00;2.13;;;4.30;99.90;;;;;;5009090;28;20050;-63